首页
METAR-TAF:

METAR-TAF

机场 :

Leuchars, 苏格兰

纬度: 56-23N, 经度: 002-52W, 海拔: 12米

当前天气观测

该预报发布于34分钟前的10:50 UTC
风速5节,风向
温度 15°C
湿度 94%
气压 1019 hPa
能見度: 7000
多云层高于400英尺
阴天层高于1400英尺

METAR: EGQL 141050Z 10005KT 7000 HZ BKN004 OVC014 15/14 Q1019 YLO2

时间: 12:24 (11:24 UTC)

预报

该预报发布于3小时和42分钟前的07:42 UTC
预报有效从14日的 09点(UTC)到 14日的 18点(UTC)
风速5节,风向
能見度: 2000
阴天层高于300英尺
轻雾
成为
从 14日的 09点(UTC)到 14日的 12点(UTC)
能見度: 8000
多云层高于700英尺
几率 30% :
短暂存在
从 14日的 12点(UTC)到 14日的 17点(UTC)
少量云层高于1000英尺
短暂存在
从 14日的 17点(UTC)到 14日的 18点(UTC)
能見度: 5000
多云层高于600英尺

TAF: EGQL 140742Z 1409/1418 09005KT 2000 BR OVC003 BECMG 1409/1412 8000 HZ BKN007 PROB30 TEMPO 1412/1417 FEW010 TEMPO 1417/1418 5000 HZ BKN006

超过4000个机场的气象观测和天气预报(METAR&TAF报告)。

可查询的气象台以黄色和红色小点在地图上表示。

将鼠标移到小点上方,可查看气象台名称。

然后点击查看天气观测和预报。

如需切换地图:点击带黑十字的绿色按钮放大地图;点击带横线的绿色按钮缩小地图;或者点击绿色箭头查看邻近地区的地图。


METAR-TAF: